Airfield :







YOU CAN JOIN US ON...

 
LOGIN :

Register | Disclaimer

   EN    FR    IT 

 









Legend :    VFR   Marginal VFR   IFR   Intensive IFR   Very Intensive IFR
Visi :
Ceiling :
>= 8 km
>= 3000ft
5 to 8 km
1000 to 3000 ft
1500m to 5 km
500 to 1000 ft
800 to 1500m
200 to 500 ft
< 800m
< 200 ft
Symbols :   Thunderstorms  Fog  Heavy snow  Heavy precipitations  Wind > 20 kt






- Airport Elevation : 408 ft


KMLT - Millinocket Municipal

CURRENT METAR :
  • 192323Z AUTO 33005KT 3SM -SN FEW022 OVC030 M09/M13 A2973 RMK AO2 P0000 T10941128

EXPIRED METARs :
  • 192304Z AUTO 33006KT 2 1/2SM -SN FEW022 OVC029 M09/M13 A2972 RMK AO2 P0000 T10941133
  • 192253Z AUTO 34007KT 3SM -SN OVC029 M09/M13 A2971 RMK AO2 SNE16B44 SLP075 P0000 T10941133
  • 192240Z AUTO 35007KT 10SM OVC029 M09/M14 A2971 RMK AO2 SNE16 P0000 T10941139
  • 192200Z AUTO 35009KT 9SM -SN OVC030 M09/M14 A2969 RMK AO2 P0000 T10941139
  • 192153Z AUTO 36010KT 8SM -SN OVC029 M09/M13 A2968 RMK AO2 SNB33 SLP066 P0000 T10891133
  • 192053Z AUTO 33006KT 10SM OVC029 M08/M13 A2965 RMK AO2 SLP053 T10831128 53025

TAF N/A



MET'MAP, your aeronautical weather chart ! - Copyright ORBIFLY December 2007 - Disclaimer

ORBIFLY MET'MAP TEAM :

Programming & Development : Alexandra Zaïnal
Concept & original design : Baudouin d'Aumeries
Assistance for programming : Marc-Olivier Méhu
Technical & hardware support : Manuel Goepfert

Contact : metmap@orbifly.com




SOURCES & CREDITS :

   NOAA